sensor_id;sensor_type;location;lat;lon;timestamp;pressure;altitude;pressure_sealevel;temperature;humidity
19761;BME280;10039;42.632;23.408;2023-07-08T00:01:11;95258.66;;;21.20;68.09
19761;BME280;10039;42.632;23.408;2023-07-08T00:03:37;95231.00;;;20.87;68.45
19761;BME280;10039;42.632;23.408;2023-07-08T00:06:03;95251.56;;;21.08;68.31
19761;BME280;10039;42.632;23.408;2023-07-08T00:08:28;95231.75;;;21.02;68.42
19761;BME280;10039;42.632;23.408;2023-07-08T00:10:55;95233.00;;;21.21;68.29
19761;BME280;10039;42.632;23.408;2023-07-08T00:13:21;95231.34;;;21.09;68.60
19761;BME280;10039;42.632;23.408;2023-07-08T00:15:46;95221.91;;;21.05;68.92
19761;BME280;10039;42.632;23.408;2023-07-08T00:18:15;95203.16;;;21.07;68.66
19761;BME280;10039;42.632;23.408;2023-07-08T00:20:44;95236.41;;;21.16;68.11
19761;BME280;10039;42.632;23.408;2023-07-08T00:23:10;95212.06;;;21.07;68.77
19761;BME280;10039;42.632;23.408;2023-07-08T00:25:36;95233.31;;;21.09;68.11
19761;BME280;10039;42.632;23.408;2023-07-08T00:28:02;95198.09;;;20.65;68.85
19761;BME280;10039;42.632;23.408;2023-07-08T00:30:31;95230.44;;;20.98;69.61
19761;BME280;10039;42.632;23.408;2023-07-08T00:32:57;95198.25;;;20.76;69.26
19761;BME280;10039;42.632;23.408;2023-07-08T00:35:30;95230.84;;;20.91;68.96
19761;BME280;10039;42.632;23.408;2023-07-08T00:37:56;95201.25;;;20.78;69.84
19761;BME280;10039;42.632;23.408;2023-07-08T00:40:30;95226.97;;;20.97;69.15
19761;BME280;10039;42.632;23.408;2023-07-08T00:42:59;95217.88;;;21.00;69.21
19761;BME280;10039;42.632;23.408;2023-07-08T00:48:09;95218.75;;;20.92;68.78
19761;BME280;10039;42.632;23.408;2023-07-08T00:50:36;95219.59;;;20.98;69.08
19761;BME280;10039;42.632;23.408;2023-07-08T00:53:24;95227.53;;;21.01;68.42
19761;BME280;10039;42.632;23.408;2023-07-08T00:55:52;95220.34;;;20.84;68.93
19761;BME280;10039;42.632;23.408;2023-07-08T00:58:19;95202.13;;;20.84;70.02
19761;BME280;10039;42.632;23.408;2023-07-08T01:00:46;95202.56;;;20.83;69.28
19761;BME280;10039;42.632;23.408;2023-07-08T01:03:15;95195.56;;;20.76;69.27
19761;BME280;10039;42.632;23.408;2023-07-08T01:05:43;95154.63;;;20.45;69.54
19761;BME280;10039;42.632;23.408;2023-07-08T01:08:10;95196.75;;;20.75;69.41
19761;BME280;10039;42.632;23.408;2023-07-08T01:10:51;95171.59;;;20.60;69.61
19761;BME280;10039;42.632;23.408;2023-07-08T01:13:18;95192.66;;;20.51;70.19
19761;BME280;10039;42.632;23.408;2023-07-08T01:15:47;95162.84;;;20.51;70.02
19761;BME280;10039;42.632;23.408;2023-07-08T01:18:16;95175.66;;;20.50;70.17
19761;BME280;10039;42.632;23.408;2023-07-08T01:20:42;95166.22;;;20.32;70.26
19761;BME280;10039;42.632;23.408;2023-07-08T01:23:09;95174.56;;;20.28;70.92
19761;BME280;10039;42.632;23.408;2023-07-08T01:25:35;95187.44;;;20.33;70.39
19761;BME280;10039;42.632;23.408;2023-07-08T01:28:01;95189.88;;;20.45;70.91
19761;BME280;10039;42.632;23.408;2023-07-08T01:30:27;95190.63;;;20.46;70.70
19761;BME280;10039;42.632;23.408;2023-07-08T01:33:01;95170.06;;;20.25;70.61
19761;BME280;10039;42.632;23.408;2023-07-08T01:35:28;95179.31;;;20.19;70.64
19761;BME280;10039;42.632;23.408;2023-07-08T01:37:58;95150.81;;;20.09;71.30
19761;BME280;10039;42.632;23.408;2023-07-08T01:40:26;95175.56;;;20.31;71.52
19761;BME280;10039;42.632;23.408;2023-07-08T01:42:52;95172.28;;;20.27;70.99
19761;BME280;10039;42.632;23.408;2023-07-08T01:45:19;95155.50;;;20.23;70.80
19761;BME280;10039;42.632;23.408;2023-07-08T01:47:58;95183.59;;;20.39;70.59
19761;BME280;10039;42.632;23.408;2023-07-08T01:50:25;95178.47;;;20.41;70.69
19761;BME280;10039;42.632;23.408;2023-07-08T01:52:53;95156.03;;;20.27;70.02
19761;BME280;10039;42.632;23.408;2023-07-08T01:55:24;95189.50;;;20.52;70.42
19761;BME280;10039;42.632;23.408;2023-07-08T01:57:52;95180.53;;;20.46;70.23
19761;BME280;10039;42.632;23.408;2023-07-08T02:00:18;95168.00;;;20.34;70.27
19761;BME280;10039;42.632;23.408;2023-07-08T02:02:44;95160.44;;;20.24;70.49
19761;BME280;10039;42.632;23.408;2023-07-08T02:05:10;95188.19;;;20.48;70.32
19761;BME280;10039;42.632;23.408;2023-07-08T02:07:35;95165.19;;;20.29;69.94
19761;BME280;10039;42.632;23.408;2023-07-08T02:10:01;95194.25;;;20.57;70.00
19761;BME280;10039;42.632;23.408;2023-07-08T02:12:26;95192.66;;;20.51;69.94
19761;BME280;10039;42.632;23.408;2023-07-08T02:14:52;95189.31;;;20.41;70.16
19761;BME280;10039;42.632;23.408;2023-07-08T02:17:17;95157.06;;;20.29;69.58
19761;BME280;10039;42.632;23.408;2023-07-08T02:19:43;95188.94;;;20.34;69.65
19761;BME280;10039;42.632;23.408;2023-07-08T02:22:09;95157.63;;;20.19;69.88
19761;BME280;10039;42.632;23.408;2023-07-08T02:24:35;95196.81;;;20.46;70.13
19761;BME280;10039;42.632;23.408;2023-07-08T02:27:00;95204.09;;;20.55;69.68
19761;BME280;10039;42.632;23.408;2023-07-08T02:29:26;95163.06;;;20.19;70.05
19761;BME280;10039;42.632;23.408;2023-07-08T02:31:51;95213.25;;;20.43;70.26
19761;BME280;10039;42.632;23.408;2023-07-08T02:34:17;95207.72;;;20.23;70.41
19761;BME280;10039;42.632;23.408;2023-07-08T02:36:43;95208.28;;;19.98;70.91
19761;BME280;10039;42.632;23.408;2023-07-08T02:39:10;95207.44;;;20.07;70.89
19761;BME280;10039;42.632;23.408;2023-07-08T02:41:35;95208.94;;;20.08;70.73
19761;BME280;10039;42.632;23.408;2023-07-08T02:44:00;95211.25;;;20.00;70.76
19761;BME280;10039;42.632;23.408;2023-07-08T02:46:26;95224.00;;;20.23;71.33
19761;BME280;10039;42.632;23.408;2023-07-08T02:48:51;95221.47;;;20.20;71.10
19761;BME280;10039;42.632;23.408;2023-07-08T02:51:17;95233.91;;;20.12;71.31
19761;BME280;10039;42.632;23.408;2023-07-08T02:53:42;95229.31;;;20.18;71.10
19761;BME280;10039;42.632;23.408;2023-07-08T02:56:08;95210.97;;;19.98;71.06
19761;BME280;10039;42.632;23.408;2023-07-08T02:58:33;95212.03;;;19.92;71.04
19761;BME280;10039;42.632;23.408;2023-07-08T03:00:59;95234.34;;;20.10;70.99
19761;BME280;10039;42.632;23.408;2023-07-08T03:03:26;95240.34;;;20.14;71.40
19761;BME280;10039;42.632;23.408;2023-07-08T03:06:13;95235.69;;;20.15;71.32
19761;BME280;10039;42.632;23.408;2023-07-08T03:08:39;95256.78;;;20.11;71.19
19761;BME280;10039;42.632;23.408;2023-07-08T03:11:06;95226.81;;;19.91;71.51
19761;BME280;10039;42.632;23.408;2023-07-08T03:13:33;95196.97;;;19.76;70.98
19761;BME280;10039;42.632;23.408;2023-07-08T03:16:00;95200.00;;;19.93;70.89
19761;BME280;10039;42.632;23.408;2023-07-08T03:18:26;95192.94;;;19.72;71.02
19761;BME280;10039;42.632;23.408;2023-07-08T03:20:56;95241.47;;;20.08;70.97
19761;BME280;10039;42.632;23.408;2023-07-08T03:23:23;95254.38;;;20.13;70.76
19761;BME280;10039;42.632;23.408;2023-07-08T03:25:49;95246.53;;;20.15;70.71
19761;BME280;10039;42.632;23.408;2023-07-08T03:28:15;95239.25;;;20.21;70.98
19761;BME280;10039;42.632;23.408;2023-07-08T03:30:41;95243.44;;;20.22;70.69
19761;BME280;10039;42.632;23.408;2023-07-08T03:33:08;95215.84;;;20.09;70.70
19761;BME280;10039;42.632;23.408;2023-07-08T03:35:34;95219.06;;;20.22;70.13
19761;BME280;10039;42.632;23.408;2023-07-08T03:38:00;95201.47;;;20.17;70.15
19761;BME280;10039;42.632;23.408;2023-07-08T03:40:26;95224.56;;;20.41;70.03
19761;BME280;10039;42.632;23.408;2023-07-08T03:42:51;95221.66;;;20.45;70.56
19761;BME280;10039;42.632;23.408;2023-07-08T03:45:17;95231.94;;;20.55;69.61
19761;BME280;10039;42.632;23.408;2023-07-08T03:47:42;95204.66;;;20.44;69.61
19761;BME280;10039;42.632;23.408;2023-07-08T03:50:20;95193.97;;;20.41;69.28
19761;BME280;10039;42.632;23.408;2023-07-08T03:52:47;95217.56;;;20.64;69.35
19761;BME280;10039;42.632;23.408;2023-07-08T03:55:16;95224.66;;;20.61;69.01
19761;BME280;10039;42.632;23.408;2023-07-08T03:57:41;95230.47;;;20.69;68.99
19761;BME280;10039;42.632;23.408;2023-07-08T04:00:08;95198.19;;;20.56;68.97
19761;BME280;10039;42.632;23.408;2023-07-08T04:02:35;95203.50;;;20.65;68.61
19761;BME280;10039;42.632;23.408;2023-07-08T04:05:01;95230.81;;;20.76;69.23
19761;BME280;10039;42.632;23.408;2023-07-08T04:07:27;95192.50;;;20.54;68.81
19761;BME280;10039;42.632;23.408;2023-07-08T04:09:53;95218.47;;;20.75;68.36
19761;BME280;10039;42.632;23.408;2023-07-08T04:12:18;95232.78;;;20.61;68.84
19761;BME280;10039;42.632;23.408;2023-07-08T04:14:44;95241.56;;;20.56;69.03
19761;BME280;10039;42.632;23.408;2023-07-08T04:17:10;95231.00;;;20.58;69.86
19761;BME280;10039;42.632;23.408;2023-07-08T04:19:36;95247.28;;;20.58;69.44
19761;BME280;10039;42.632;23.408;2023-07-08T04:22:02;95217.00;;;20.45;69.52
19761;BME280;10039;42.632;23.408;2023-07-08T04:24:28;95207.06;;;20.14;69.79
19761;BME280;10039;42.632;23.408;2023-07-08T04:26:54;95238.50;;;20.49;69.67
19761;BME280;10039;42.632;23.408;2023-07-08T04:29:21;95222.06;;;20.38;70.17
19761;BME280;10039;42.632;23.408;2023-07-08T04:31:47;95217.72;;;20.46;69.79
19761;BME280;10039;42.632;23.408;2023-07-08T04:34:14;95193.44;;;20.23;69.99
19761;BME280;10039;42.632;23.408;2023-07-08T04:36:40;95189.78;;;20.26;70.26
19761;BME280;10039;42.632;23.408;2023-07-08T04:39:07;95219.50;;;20.49;69.94
19761;BME280;10039;42.632;23.408;2023-07-08T04:41:33;95218.78;;;20.48;70.17
19761;BME280;10039;42.632;23.408;2023-07-08T04:43:59;95195.09;;;20.34;69.66
19761;BME280;10039;42.632;23.408;2023-07-08T04:46:44;95236.41;;;20.73;69.69
19761;BME280;10039;42.632;23.408;2023-07-08T04:49:11;95202.59;;;20.54;69.37
19761;BME280;10039;42.632;23.408;2023-07-08T04:51:38;95209.13;;;20.76;68.77
19761;BME280;10039;42.632;23.408;2023-07-08T04:54:03;95203.63;;;20.85;68.49
19761;BME280;10039;42.632;23.408;2023-07-08T04:56:37;95234.72;;;21.04;69.32
19761;BME280;10039;42.632;23.408;2023-07-08T04:59:05;95242.56;;;21.17;68.32
19761;BME280;10039;42.632;23.408;2023-07-08T05:01:30;95248.22;;;21.33;68.01
19761;BME280;10039;42.632;23.408;2023-07-08T05:03:56;95220.31;;;20.98;67.84
19761;BME280;10039;42.632;23.408;2023-07-08T05:06:21;95255.13;;;21.14;68.37
19761;BME280;10039;42.632;23.408;2023-07-08T05:08:47;95249.00;;;21.19;67.80
19761;BME280;10039;42.632;23.408;2023-07-08T05:11:13;95255.28;;;21.25;67.90
19761;BME280;10039;42.632;23.408;2023-07-08T05:13:38;95257.28;;;21.10;67.37
19761;BME280;10039;42.632;23.408;2023-07-08T05:16:04;95244.72;;;21.13;67.82
19761;BME280;10039;42.632;23.408;2023-07-08T05:18:29;95247.09;;;21.05;67.42
19761;BME280;10039;42.632;23.408;2023-07-08T05:20:55;95227.81;;;21.03;67.98
19761;BME280;10039;42.632;23.408;2023-07-08T05:23:21;95238.56;;;21.12;67.87
19761;BME280;10039;42.632;23.408;2023-07-08T05:25:47;95255.66;;;21.33;67.34
19761;BME280;10039;42.632;23.408;2023-07-08T05:28:13;95232.06;;;21.24;66.61
19761;BME280;10039;42.632;23.408;2023-07-08T05:30:40;95254.28;;;21.43;66.29
19761;BME280;10039;42.632;23.408;2023-07-08T05:33:06;95253.81;;;21.44;66.21
19761;BME280;10039;42.632;23.408;2023-07-08T05:35:32;95247.41;;;21.27;66.66
19761;BME280;10039;42.632;23.408;2023-07-08T05:37:57;95259.59;;;21.51;65.83
19761;BME280;10039;42.632;23.408;2023-07-08T05:40:22;95253.50;;;21.56;66.03
19761;BME280;10039;42.632;23.408;2023-07-08T05:42:48;95263.44;;;21.59;65.68
19761;BME280;10039;42.632;23.408;2023-07-08T05:45:13;95258.84;;;21.65;65.31
19761;BME280;10039;42.632;23.408;2023-07-08T05:47:39;95265.56;;;21.70;64.80
19761;BME280;10039;42.632;23.408;2023-07-08T05:50:05;95233.16;;;21.52;65.11
19761;BME280;10039;42.632;23.408;2023-07-08T05:52:30;95276.50;;;21.75;64.13
19761;BME280;10039;42.632;23.408;2023-07-08T05:54:56;95266.22;;;21.65;64.82
19761;BME280;10039;42.632;23.408;2023-07-08T05:57:22;95250.78;;;21.56;64.80
19761;BME280;10039;42.632;23.408;2023-07-08T05:59:48;95276.03;;;21.77;64.55
19761;BME280;10039;42.632;23.408;2023-07-08T06:02:16;95285.19;;;21.99;64.40
19761;BME280;10039;42.632;23.408;2023-07-08T06:04:42;95265.47;;;22.04;63.62
19761;BME280;10039;42.632;23.408;2023-07-08T06:07:08;95272.94;;;22.09;63.77
19761;BME280;10039;42.632;23.408;2023-07-08T06:09:34;95278.72;;;22.17;63.50
19761;BME280;10039;42.632;23.408;2023-07-08T06:11:59;95279.00;;;22.39;62.92
19761;BME280;10039;42.632;23.408;2023-07-08T06:14:25;95285.66;;;22.38;62.80
19761;BME280;10039;42.632;23.408;2023-07-08T06:16:50;95272.06;;;22.38;63.24
19761;BME280;10039;42.632;23.408;2023-07-08T06:19:16;95282.94;;;22.38;62.55
19761;BME280;10039;42.632;23.408;2023-07-08T06:21:43;95301.56;;;22.25;62.94
19761;BME280;10039;42.632;23.408;2023-07-08T06:24:08;95299.94;;;22.33;63.07
19761;BME280;10039;42.632;23.408;2023-07-08T06:26:34;95300.44;;;22.57;63.31
19761;BME280;10039;42.632;23.408;2023-07-08T06:28:59;95262.94;;;22.41;62.67
19761;BME280;10039;42.632;23.408;2023-07-08T06:31:25;95283.69;;;22.64;61.75
19761;BME280;10039;42.632;23.408;2023-07-08T06:33:51;95301.00;;;22.86;61.69
19761;BME280;10039;42.632;23.408;2023-07-08T06:36:16;95297.78;;;22.87;61.91
19761;BME280;10039;42.632;23.408;2023-07-08T06:38:41;95294.63;;;22.94;62.05
19761;BME280;10039;42.632;23.408;2023-07-08T06:41:07;95288.50;;;22.74;61.79
19761;BME280;10039;42.632;23.408;2023-07-08T06:43:32;95290.78;;;22.56;61.58
19761;BME280;10039;42.632;23.408;2023-07-08T06:45:58;95293.81;;;22.63;61.54
19761;BME280;10039;42.632;23.408;2023-07-08T06:48:23;95244.59;;;22.16;61.39
19761;BME280;10039;42.632;23.408;2023-07-08T06:50:49;95275.81;;;22.20;61.79
19761;BME280;10039;42.632;23.408;2023-07-08T06:53:15;95282.78;;;22.27;61.87
19761;BME280;10039;42.632;23.408;2023-07-08T06:55:41;95280.66;;;22.11;61.86
19761;BME280;10039;42.632;23.408;2023-07-08T06:58:06;95301.56;;;22.25;62.42
19761;BME280;10039;42.632;23.408;2023-07-08T07:00:32;95294.09;;;22.20;62.61
19761;BME280;10039;42.632;23.408;2023-07-08T07:02:57;95297.28;;;22.18;62.49
19761;BME280;10039;42.632;23.408;2023-07-08T07:05:22;95304.78;;;22.23;62.21
19761;BME280;10039;42.632;23.408;2023-07-08T07:07:48;95289.13;;;22.38;62.08
19761;BME280;10039;42.632;23.408;2023-07-08T07:10:14;95292.69;;;22.50;61.53
19761;BME280;10039;42.632;23.408;2023-07-08T07:12:39;95301.03;;;22.41;60.95
19761;BME280;10039;42.632;23.408;2023-07-08T07:15:05;95305.78;;;22.46;61.08
19761;BME280;10039;42.632;23.408;2023-07-08T07:17:31;95267.88;;;21.97;60.59
19761;BME280;10039;42.632;23.408;2023-07-08T07:19:56;95265.81;;;22.12;60.54
19761;BME280;10039;42.632;23.408;2023-07-08T07:22:22;95288.66;;;22.20;60.58
19761;BME280;10039;42.632;23.408;2023-07-08T07:24:48;95305.38;;;22.33;59.92
19761;BME280;10039;42.632;23.408;2023-07-08T07:27:13;95312.97;;;22.29;60.62
19761;BME280;10039;42.632;23.408;2023-07-08T07:29:44;95322.25;;;22.37;60.10
19761;BME280;10039;42.632;23.408;2023-07-08T07:32:11;95309.75;;;22.45;59.62
19761;BME280;10039;42.632;23.408;2023-07-08T07:34:37;95313.88;;;22.40;59.12
19761;BME280;10039;42.632;23.408;2023-07-08T07:37:03;95310.75;;;22.27;59.90
19761;BME280;10039;42.632;23.408;2023-07-08T07:39:29;95330.81;;;22.30;60.65
19761;BME280;10039;42.632;23.408;2023-07-08T07:42:01;95328.94;;;22.36;60.33
19761;BME280;10039;42.632;23.408;2023-07-08T07:44:26;95321.78;;;22.38;59.97
19761;BME280;10039;42.632;23.408;2023-07-08T07:46:52;95319.41;;;22.46;60.45
19761;BME280;10039;42.632;23.408;2023-07-08T07:49:19;95325.22;;;22.59;60.10
19761;BME280;10039;42.632;23.408;2023-07-08T07:51:45;95310.47;;;22.45;58.78
19761;BME280;10039;42.632;23.408;2023-07-08T07:54:10;95311.38;;;22.37;59.44
19761;BME280;10039;42.632;23.408;2023-07-08T07:56:36;95303.75;;;22.66;60.67
19761;BME280;10039;42.632;23.408;2023-07-08T07:59:03;95317.31;;;22.86;59.99
19761;BME280;10039;42.632;23.408;2023-07-08T08:01:29;95317.94;;;23.01;59.58
19761;BME280;10039;42.632;23.408;2023-07-08T08:03:54;95323.88;;;23.25;59.13
19761;BME280;10039;42.632;23.408;2023-07-08T08:06:19;95310.72;;;23.23;58.00
19761;BME280;10039;42.632;23.408;2023-07-08T08:08:45;95313.97;;;23.27;58.64
19761;BME280;10039;42.632;23.408;2023-07-08T08:11:11;95308.81;;;23.35;58.85
19761;BME280;10039;42.632;23.408;2023-07-08T08:13:36;95313.44;;;23.54;57.93
19761;BME280;10039;42.632;23.408;2023-07-08T08:16:03;95278.38;;;23.36;56.93
19761;BME280;10039;42.632;23.408;2023-07-08T08:18:29;95316.81;;;23.80;55.56
19761;BME280;10039;42.632;23.408;2023-07-08T08:20:54;95307.56;;;23.67;56.49
19761;BME280;10039;42.632;23.408;2023-07-08T08:23:20;95308.91;;;23.82;56.32
19761;BME280;10039;42.632;23.408;2023-07-08T08:25:46;95315.69;;;23.97;55.58
19761;BME280;10039;42.632;23.408;2023-07-08T08:28:11;95296.56;;;23.92;56.07
19761;BME280;10039;42.632;23.408;2023-07-08T08:30:37;95307.06;;;24.10;55.61
19761;BME280;10039;42.632;23.408;2023-07-08T08:33:03;95304.88;;;24.19;55.84
19761;BME280;10039;42.632;23.408;2023-07-08T08:35:28;95313.13;;;24.36;55.45
19761;BME280;10039;42.632;23.408;2023-07-08T08:37:53;95322.38;;;24.55;54.52
19761;BME280;10039;42.632;23.408;2023-07-08T08:40:20;95302.81;;;24.62;55.07
19761;BME280;10039;42.632;23.408;2023-07-08T08:45:23;95299.09;;;24.76;54.70
19761;BME280;10039;42.632;23.408;2023-07-08T08:47:56;95293.16;;;24.94;54.52
19761;BME280;10039;42.632;23.408;2023-07-08T08:53:21;95305.09;;;25.07;53.39
19761;BME280;10039;42.632;23.408;2023-07-08T08:56:00;95294.94;;;25.29;52.93
19761;BME280;10039;42.632;23.408;2023-07-08T08:58:41;95309.25;;;24.70;52.93
19761;BME280;10039;42.632;23.408;2023-07-08T09:01:11;95302.06;;;24.67;53.97
19761;BME280;10039;42.632;23.408;2023-07-08T09:04:03;95293.34;;;24.57;53.08
19761;BME280;10039;42.632;23.408;2023-07-08T09:06:30;95293.88;;;24.67;53.79
19761;BME280;10039;42.632;23.408;2023-07-08T09:09:02;95304.56;;;24.92;53.50
19761;BME280;10039;42.632;23.408;2023-07-08T09:13:57;95298.13;;;25.11;53.34
19761;BME280;10039;42.632;23.408;2023-07-08T09:19:00;95291.91;;;25.60;52.08
19761;BME280;10039;42.632;23.408;2023-07-08T09:21:41;95296.84;;;25.67;52.50
19761;BME280;10039;42.632;23.408;2023-07-08T09:24:17;95293.66;;;25.63;52.82
19761;BME280;10039;42.632;23.408;2023-07-08T09:26:45;95286.41;;;25.71;51.33
19761;BME280;10039;42.632;23.408;2023-07-08T09:29:11;95290.16;;;25.63;50.89
19761;BME280;10039;42.632;23.408;2023-07-08T09:31:39;95284.66;;;25.79;52.85
19761;BME280;10039;42.632;23.408;2023-07-08T09:34:16;95287.75;;;26.27;51.63
19761;BME280;10039;42.632;23.408;2023-07-08T09:36:44;95285.25;;;26.23;50.26
19761;BME280;10039;42.632;23.408;2023-07-08T09:39:13;95281.81;;;26.12;50.34
19761;BME280;10039;42.632;23.408;2023-07-08T09:41:40;95285.19;;;26.40;49.25
19761;BME280;10039;42.632;23.408;2023-07-08T09:44:26;95250.16;;;26.27;49.93
19761;BME280;10039;42.632;23.408;2023-07-08T09:46:55;95291.19;;;26.33;48.96
19761;BME280;10039;42.632;23.408;2023-07-08T09:49:36;95282.94;;;26.44;48.75
19761;BME280;10039;42.632;23.408;2023-07-08T09:52:02;95271.47;;;26.45;48.48
19761;BME280;10039;42.632;23.408;2023-07-08T09:54:30;95255.06;;;26.45;48.84
19761;BME280;10039;42.632;23.408;2023-07-08T09:57:28;95286.13;;;26.94;48.53
19761;BME280;10039;42.632;23.408;2023-07-08T10:00:07;95274.72;;;26.90;47.61
19761;BME280;10039;42.632;23.408;2023-07-08T10:02:46;95279.50;;;26.78;48.02
19761;BME280;10039;42.632;23.408;2023-07-08T10:05:21;95267.69;;;26.94;48.68
19761;BME280;10039;42.632;23.408;2023-07-08T10:07:48;95274.03;;;27.13;47.00
19761;BME280;10039;42.632;23.408;2023-07-08T10:10:24;95267.81;;;27.13;47.11
19761;BME280;10039;42.632;23.408;2023-07-08T10:13:00;95268.88;;;26.99;46.85
19761;BME280;10039;42.632;23.408;2023-07-08T10:17:55;95234.03;;;26.64;47.02
19761;BME280;10039;42.632;23.408;2023-07-08T10:20:21;95273.13;;;27.00;47.51
19761;BME280;10039;42.632;23.408;2023-07-08T10:23:21;95253.94;;;27.00;46.84
19761;BME280;10039;42.632;23.408;2023-07-08T10:25:58;95264.75;;;27.22;47.04
19761;BME280;10039;42.632;23.408;2023-07-08T10:31:34;95257.41;;;27.06;46.78
19761;BME280;10039;42.632;23.408;2023-07-08T10:37:03;95250.06;;;27.72;46.95
19761;BME280;10039;42.632;23.408;2023-07-08T10:40:23;95236.00;;;27.81;45.53
19761;BME280;10039;42.632;23.408;2023-07-08T10:45:44;95233.91;;;28.11;47.17
19761;BME280;10039;42.632;23.408;2023-07-08T10:56:54;95204.66;;;27.47;44.76
19761;BME280;10039;42.632;23.408;2023-07-08T10:59:52;95229.53;;;27.79;45.73
19761;BME280;10039;42.632;23.408;2023-07-08T11:02:36;95226.81;;;27.97;45.96
19761;BME280;10039;42.632;23.408;2023-07-08T11:07:44;95223.16;;;27.65;42.62
19761;BME280;10039;42.632;23.408;2023-07-08T11:10:17;95213.94;;;27.68;44.21
19761;BME280;10039;42.632;23.408;2023-07-08T11:15:30;95214.84;;;28.37;44.31
19761;BME280;10039;42.632;23.408;2023-07-08T11:18:16;95217.44;;;28.48;44.15
19761;BME280;10039;42.632;23.408;2023-07-08T11:20:55;95206.00;;;28.44;43.76
19761;BME280;10039;42.632;23.408;2023-07-08T11:23:55;95194.63;;;28.53;44.78
19761;BME280;10039;42.632;23.408;2023-07-08T11:26:36;95188.63;;;28.55;46.12
19761;BME280;10039;42.632;23.408;2023-07-08T11:29:04;95193.59;;;28.38;43.82
19761;BME280;10039;42.632;23.408;2023-07-08T11:31:36;95187.69;;;28.34;43.80
19761;BME280;10039;42.632;23.408;2023-07-08T11:34:02;95188.63;;;28.55;43.42
19761;BME280;10039;42.632;23.408;2023-07-08T11:36:28;95180.88;;;28.53;43.86
19761;BME280;10039;42.632;23.408;2023-07-08T11:38:56;95177.50;;;28.10;42.54
19761;BME280;10039;42.632;23.408;2023-07-08T11:41:27;95184.03;;;28.07;42.51
19761;BME280;10039;42.632;23.408;2023-07-08T11:43:58;95198.44;;;28.13;43.17
19761;BME280;10039;42.632;23.408;2023-07-08T11:46:27;95191.13;;;27.97;43.02
19761;BME280;10039;42.632;23.408;2023-07-08T11:49:01;95197.06;;;27.83;42.67
19761;BME280;10039;42.632;23.408;2023-07-08T11:51:31;95195.53;;;27.87;43.08
19761;BME280;10039;42.632;23.408;2023-07-08T11:56:47;95181.03;;;28.05;43.32
19761;BME280;10039;42.632;23.408;2023-07-08T11:59:18;95209.63;;;28.15;42.65
19761;BME280;10039;42.632;23.408;2023-07-08T12:07:20;95202.38;;;28.86;42.51
19761;BME280;10039;42.632;23.408;2023-07-08T12:10:10;95195.66;;;29.00;43.13
19761;BME280;10039;42.632;23.408;2023-07-08T12:12:36;95187.41;;;29.00;42.25
19761;BME280;10039;42.632;23.408;2023-07-08T12:15:26;95188.88;;;28.69;41.97
19761;BME280;10039;42.632;23.408;2023-07-08T12:17:56;95161.09;;;28.73;41.85
19761;BME280;10039;42.632;23.408;2023-07-08T12:20:26;95178.63;;;28.88;41.45
19761;BME280;10039;42.632;23.408;2023-07-08T12:22:52;95195.41;;;28.85;41.48
19761;BME280;10039;42.632;23.408;2023-07-08T12:25:21;95189.09;;;28.71;41.29
19761;BME280;10039;42.632;23.408;2023-07-08T12:27:47;95183.97;;;28.81;42.14
19761;BME280;10039;42.632;23.408;2023-07-08T12:30:15;95167.75;;;28.77;42.47
19761;BME280;10039;42.632;23.408;2023-07-08T12:32:41;95177.41;;;28.84;42.11
19761;BME280;10039;42.632;23.408;2023-07-08T12:35:19;95174.00;;;28.47;41.43
19761;BME280;10039;42.632;23.408;2023-07-08T12:37:46;95178.97;;;28.11;42.31
19761;BME280;10039;42.632;23.408;2023-07-08T12:40:12;95180.16;;;27.97;42.25
19761;BME280;10039;42.632;23.408;2023-07-08T12:42:38;95167.75;;;27.72;43.13
19761;BME280;10039;42.632;23.408;2023-07-08T12:45:13;95159.06;;;28.24;42.95
19761;BME280;10039;42.632;23.408;2023-07-08T12:47:38;95178.19;;;28.35;42.11
19761;BME280;10039;42.632;23.408;2023-07-08T12:50:04;95171.66;;;28.69;43.53
19761;BME280;10039;42.632;23.408;2023-07-08T12:52:29;95158.94;;;28.84;41.81
19761;BME280;10039;42.632;23.408;2023-07-08T12:54:55;95182.78;;;29.21;41.68
19761;BME280;10039;42.632;23.408;2023-07-08T12:57:20;95141.53;;;29.21;41.76
19761;BME280;10039;42.632;23.408;2023-07-08T12:59:46;95168.66;;;29.56;39.81
19761;BME280;10039;42.632;23.408;2023-07-08T13:02:20;95168.13;;;29.44;41.26
19761;BME280;10039;42.632;23.408;2023-07-08T13:04:50;95187.28;;;29.50;42.22
19761;BME280;10039;42.632;23.408;2023-07-08T13:09:59;95175.41;;;29.29;41.61
19761;BME280;10039;42.632;23.408;2023-07-08T13:12:25;95188.53;;;29.87;41.46
19761;BME280;10039;42.632;23.408;2023-07-08T13:14:53;95181.03;;;29.75;40.69
19761;BME280;10039;42.632;23.408;2023-07-08T13:17:20;95182.53;;;29.76;40.44
19761;BME280;10039;42.632;23.408;2023-07-08T13:19:46;95190.56;;;29.74;40.67
19761;BME280;10039;42.632;23.408;2023-07-08T13:22:16;95189.44;;;29.44;40.46
19761;BME280;10039;42.632;23.408;2023-07-08T13:24:43;95188.41;;;28.84;41.23
19761;BME280;10039;42.632;23.408;2023-07-08T13:27:16;95182.84;;;28.89;42.15
19761;BME280;10039;42.632;23.408;2023-07-08T13:29:45;95181.31;;;29.07;41.73
19761;BME280;10039;42.632;23.408;2023-07-08T13:32:11;95158.78;;;28.77;41.81
19761;BME280;10039;42.632;23.408;2023-07-08T13:34:36;95170.03;;;28.92;42.20
19761;BME280;10039;42.632;23.408;2023-07-08T13:37:02;95180.50;;;28.62;42.19
19761;BME280;10039;42.632;23.408;2023-07-08T13:39:31;95182.41;;;28.36;42.07
19761;BME280;10039;42.632;23.408;2023-07-08T13:41:58;95150.75;;;28.11;42.02
19761;BME280;10039;42.632;23.408;2023-07-08T13:44:25;95152.41;;;28.01;42.10
19761;BME280;10039;42.632;23.408;2023-07-08T13:46:55;95179.72;;;28.12;43.22